Aérodrome :
LOGIN :

S'inscrire | Disclaimer

   EN    FR    IT 

 










Légende :    VFR   VFR Marginal   IFR   IFR Intensif   IFR Très Intensif
Visi : 
Plafond : 
>= 8 km
>= 3000ft
5 à 8 km
1000 à 3000 ft
1500m à 5 km
500 à 1000 ft
800 à 1500m
200 à 500 ft
< 800m
< 200 ft
Symboles :   Orages  Brouillard  Fortes neiges  Fortes précipitations  Vent > 20 kt
SIGMETs :   Divers  Orages  Givrage  Turbulence  Onde Orograph.  Cendres Volcan.






- Altitude de l'aérodrome : 42 ft
- Code IATA : LMO


EGQS - Lossiemouth

DERNIER METAR :
  • 190550Z 23009KT CAVOK 03/00 Q1037 BLU RMK BLU

METARs EXPIRÉS :
  • 190450Z 23010KT CAVOK 01/M01 Q1036 RMK BLU
  • 190350Z 24009KT CAVOK 00/M02 Q1036 BLU RMK BLU

TAF TAF EGQS
Valide du 19 à 06h jusqu'au 20 à 00h UTC


190448Z 1906/1924 22012KT 9999 FEW035
PROB30
TEMPO 1911/1914 23015G25KT
BECMG 1914/1917 24016G26KT
PROB40
TEMPO 1915/1924 25022G36KT



MET'MAP, la Météo Aéronautique d'un coup d'oeil ! - Copyright ORBIFLY Décembre 2007 - Disclaimer

ORBIFLY MET'MAP TEAM :

Programmation & Développement : Alexandra Zaïnal
Sur une idée originale de : Baudouin d'Aumeries
Assistance à la programmation : Marc-Olivier Méhu
Soutien technique & logistique : Manuel Goepfert

Contact : metmap@orbifly.com




SOURCES & CREDITS :

   NOAA